Main page
METAR-TAF:

METAR-TAF

Airports :

Orlando Executive Airport

Orlando, Florida, United States

latitude: 28-32-47N, longitude: 081-20-09W, elevation: 112 ft

Current weather observation

The report was made 1 hour and 10 minutes ago, at 05:53 UTC
Wind 5 mph from the East
Temperature 72°F
Humidity 78%
Pressure 30.14 in. Hg
Visibility: 10 miles
Scattered clouds at a height of 3800 ft
Overcast at a height of 7000 ft

METAR: KORL 180553Z AUTO 09004KT 10SM SCT038 OVC070 22/18 A3014 RMK AO2 RAB09E20 SLP210 P0000 60000 T02220183 10250 20222 58008

Time: 03:03 (07:03 UTC)


TAF: missing

Weather observations and forecasts of more than 4000 airports (METAR and TAF reports).

The available stations are represented by yellow and red dots on the map.

Hover mouse over dot to see the name of the station.

Then click to see weather observations and forecasts.

To change the map : click on the green buttons with a black cross to zoom in, on the green button with a dash to zoom out, or on the green arrows for adjacent maps.


METAR-TAF: